Zirfaea — PBZV — position and weather

sailwx.info

Track history (hours):
 
Tides and Currents Weather Stations Pressure Air Temp Water Temp Dewpoint Dewpoint Depression Visibility Wind Speed Wind Dir Waves Ship Positions

Oceanographic research ship Zirfaea (Netherlands)

Detailed information on ship capabilities available from University of Delaware's Ocean Information Center.

Last reported at 2017-Oct-16 22:26 UTC. Time now 2017-Oct-17 15:09 UTC.
Position N 52°58' E 003°34'.

Length 63 m; draft 3.9 m.

Type: Law enforcement. MMSI: 246096000.

Date/timePositionNaut miles runAvg speedWind from/ knotsBaromVisibWave heightAir tempDewpointWater temp
2017-Oct-16 22:26N 52°58' E 003°34'4 9.3
2017-Oct-16 22:00N 52°54' E 003°32'5 9.2
2017-Oct-16 21:30N 52°49' E 003°30'4 9.1
2017-Oct-16 21:00N 52°45' E 003°28'5 8.9
2017-Oct-16 20:29N 52°40' E 003°27'4 8.4
2017-Oct-16 19:59N 52°36' E 003°26'4 6.2
2017-Oct-16 19:16N 52°34' E 003°32'2 9.2
2017-Oct-16 19:00N 52°32' E 003°35'6 9.1
2017-Oct-16 18:19N 52°28' E 003°43'3 9.2
2017-Oct-16 17:59N 52°27' E 003°47'4 8.9
2017-Oct-16 17:30N 52°24' E 003°52'5 9.2
2017-Oct-16 17:00N 52°20' E 003°56'5 9.6
2017-Oct-16 16:30N 52°16' E 004°01'510.0
2017-Oct-16 16:00N 52°12' E 004°06'5 9.6
2017-Oct-16 15:30N 52°09' E 004°12'4 7.4
2017-Oct-16 15:00N 52°06' E 004°16'7 7.4
2017-Oct-16 14:00N 52°13' E 004°14'4 8.2
2017-Oct-16 13:30N 52°17' E 004°12'4 7.4
2017-Oct-16 13:00N 52°21' E 004°11'3 6.2
2017-Oct-16 12:30N 52°19' E 004°15'2 4.8
2017-Oct-16 12:00N 52°18' E 004°18'4 8.0
2017-Oct-16 11:30N 52°16' E 004°24'0 0.6
2017-Oct-16 11:00N 52°16' E 004°24'2 3.6
2017-Oct-16 10:30N 52°16' E 004°21'3 5.7
2017-Oct-16 10:00N 52°13' E 004°19'510.2
2017-Oct-16 09:30N 52°09' E 004°16'3 5.6
2017-Oct-16 09:00N 52°06' E 004°16'0 0.0
2017-Oct-16 08:30N 52°06' E 004°16'0 0.0
2017-Oct-16 08:00N 52°06' E 004°16'0 0.0
2017-Oct-16 07:30N 52°06' E 004°16'0 0.0
2017-Oct-16 07:00N 52°06' E 004°16'0 0.0
2017-Oct-16 06:30N 52°06' E 004°16'0 0.0
2017-Oct-16 06:00N 52°06' E 004°16'0 0.0
2017-Oct-16 05:30N 52°06' E 004°16'0 0.0
2017-Oct-16 04:57N 52°06' E 004°16'0 0.0
2017-Oct-16 04:30N 52°06' E 004°16'0 0.0
2017-Oct-16 04:00N 52°06' E 004°16'0 0.0
2017-Oct-16 03:30N 52°06' E 004°16'0 0.0
2017-Oct-16 03:00N 52°06' E 004°16'0 0.0
2017-Oct-16 02:30N 52°06' E 004°16'0 0.0
2017-Oct-16 02:00N 52°06' E 004°16'0 0.0
2017-Oct-16 01:30N 52°06' E 004°16'0 0.0
2017-Oct-16 01:00N 52°06' E 004°16'0 0.0
2017-Oct-16 00:30N 52°06' E 004°16'0 0.0
2017-Oct-16 00:00N 52°06' E 004°16'0 0.0
2017-Oct-15 23:30N 52°06' E 004°16'0 0.0
2017-Oct-15 23:00N 52°06' E 004°16'0 0.0
2017-Oct-15 22:30N 52°06' E 004°16'0 0.0
2017-Oct-15 22:00N 52°06' E 004°16'0 0.0
2017-Oct-15 21:30N 52°06' E 004°16'0 0.0
2017-Oct-15 21:00N 52°06' E 004°16'0 0.0
2017-Oct-15 20:30N 52°06' E 004°16'0 0.0
2017-Oct-15 20:00N 52°06' E 004°16'0 0.0
2017-Oct-15 19:30N 52°06' E 004°16'0 0.0
2017-Oct-15 18:57N 52°06' E 004°16'0 0.0
2017-Oct-15 18:30N 52°06' E 004°16'0 0.0
2017-Oct-15 18:00N 52°06' E 004°16'0 0.0
2017-Oct-15 17:30N 52°06' E 004°16'0 0.0
2017-Oct-15 16:57N 52°06' E 004°16'0 0.0
2017-Oct-15 16:30N 52°06' E 004°16'0 0.0
2017-Oct-15 16:00N 52°06' E 004°16'0 0.0
2017-Oct-15 15:30N 52°06' E 004°16'0 0.0
2017-Oct-15 15:00N 52°06' E 004°16'0 0.0
2017-Oct-15 14:00N 52°06' E 004°16'0 0.0
2017-Oct-15 13:30N 52°06' E 004°16'0 0.0
2017-Oct-15 13:00N 52°06' E 004°16'0 0.0
2017-Oct-15 12:30N 52°06' E 004°16'0 0.0
2017-Oct-15 12:00N 52°06' E 004°16'0 0.0
2017-Oct-15 11:30N 52°06' E 004°16'0 0.0
2017-Oct-15 10:57N 52°06' E 004°16'0 0.0
2017-Oct-15 10:30N 52°06' E 004°16'0 0.0
2017-Oct-15 10:00N 52°06' E 004°16'0 0.0
2017-Oct-15 09:30N 52°06' E 004°16'0 0.0
2017-Oct-15 09:00N 52°06' E 004°16'0 0.0
2017-Oct-15 08:30N 52°06' E 004°16'0 0.0
2017-Oct-15 08:00N 52°06' E 004°16'0 0.0
2017-Oct-15 07:30N 52°06' E 004°16'0 0.0
2017-Oct-15 07:00N 52°06' E 004°16'0 0.0
2017-Oct-15 06:30N 52°06' E 004°16'0 0.0
2017-Oct-15 06:00N 52°06' E 004°16'0 0.0
2017-Oct-15 05:30N 52°06' E 004°16'0 0.0
2017-Oct-15 05:00N 52°06' E 004°16'0 0.0
2017-Oct-15 04:30N 52°06' E 004°16'0 0.0
2017-Oct-15 04:00N 52°06' E 004°16'0 0.0
2017-Oct-15 03:30N 52°06' E 004°16'0 0.0
2017-Oct-15 03:00N 52°06' E 004°16'0 0.0
2017-Oct-15 02:30N 52°06' E 004°16'0 0.0
2017-Oct-15 02:00N 52°06' E 004°16'0 0.1
2017-Oct-15 01:30N 52°06' E 004°16'0 0.1
2017-Oct-15 01:00N 52°06' E 004°16'0 0.0
2017-Oct-15 00:30N 52°06' E 004°16'0 0.0
2017-Oct-15 00:00N 52°06' E 004°16'0 0.0
2017-Oct-14 23:30N 52°06' E 004°16'0 0.0
2017-Oct-14 23:00N 52°06' E 004°16'0 0.0
2017-Oct-14 22:30N 52°06' E 004°16'0 0.0
2017-Oct-14 22:00N 52°06' E 004°16'0 0.0
2017-Oct-14 21:30N 52°06' E 004°16'0 0.0
2017-Oct-14 21:00N 52°06' E 004°16'0 0.0
2017-Oct-14 20:30N 52°06' E 004°16'0 0.0
2017-Oct-14 20:00N 52°06' E 004°16'0 0.0
2017-Oct-14 19:30N 52°06' E 004°16'0 0.0
2017-Oct-14 19:00N 52°06' E 004°16'0 0.0
2017-Oct-14 18:30N 52°06' E 004°16'0 0.0
2017-Oct-14 18:00N 52°06' E 004°16'0 0.0
2017-Oct-14 17:30N 52°06' E 004°16'0 0.0
2017-Oct-14 17:00N 52°06' E 004°16'0 0.0
2017-Oct-14 16:30N 52°06' E 004°16'0 0.0
2017-Oct-14 16:00N 52°06' E 004°16'0 0.0
2017-Oct-14 15:30N 52°06' E 004°16'0 0.0
2017-Oct-14 15:00N 52°06' E 004°16'0 0.0
2017-Oct-14 14:30N 52°06' E 004°16'0 0.0
2017-Oct-14 14:00N 52°06' E 004°16'0 0.0
2017-Oct-14 13:30N 52°06' E 004°16'0 0.0
2017-Oct-14 13:00N 52°06' E 004°16'0 0.0
2017-Oct-14 12:30N 52°06' E 004°16'0 0.0
2017-Oct-14 12:00N 52°06' E 004°16'0 0.0
2017-Oct-14 11:27N 52°06' E 004°16'0 0.0
2017-Oct-14 11:00N 52°06' E 004°16'0 0.0
2017-Oct-14 10:30N 52°06' E 004°16'0 0.0
2017-Oct-14 10:00N 52°06' E 004°16'0 0.0
2017-Oct-14 09:30N 52°06' E 004°16'0 0.0
2017-Oct-14 09:00N 52°06' E 004°16'0 0.0
2017-Oct-14 08:30N 52°06' E 004°16'0 0.0
2017-Oct-14 08:00N 52°06' E 004°16'0 0.0
2017-Oct-14 07:27N 52°06' E 004°16'0 0.0
2017-Oct-14 07:00N 52°06' E 004°16'0 0.0
2017-Oct-14 06:27N 52°06' E 004°16'0 0.0
2017-Oct-14 06:00N 52°06' E 004°16'0 0.0
2017-Oct-14 05:30N 52°06' E 004°16'0 0.0
2017-Oct-14 05:00N 52°06' E 004°16'0 0.0
2017-Oct-14 04:30N 52°06' E 004°16'0 0.0
2017-Oct-14 03:57N 52°06' E 004°16'0 0.0
2017-Oct-14 03:30N 52°06' E 004°16'0 0.0
2017-Oct-14 03:00N 52°06' E 004°16'0 0.0
2017-Oct-14 02:30N 52°06' E 004°16'0 0.0
2017-Oct-14 02:00N 52°06' E 004°16'0 0.0
2017-Oct-14 01:27N 52°06' E 004°16'0 0.0
2017-Oct-14 01:00N 52°06' E 004°16'0 0.0
2017-Oct-14 00:30N 52°06' E 004°16'0 0.0
2017-Oct-14 00:00N 52°06' E 004°16'0 0.0
2017-Oct-13 23:30N 52°06' E 004°16'0 0.0
2017-Oct-13 23:00N 52°06' E 004°16'0 0.0
2017-Oct-13 22:30N 52°06' E 004°16'0 0.0
2017-Oct-13 21:57N 52°06' E 004°16'0 0.0
2017-Oct-13 21:30N 52°06' E 004°16'0 0.0
2017-Oct-13 20:57N 52°06' E 004°16'0 0.0
2017-Oct-13 20:30N 52°06' E 004°16'0 0.0
2017-Oct-13 20:00N 52°06' E 004°16'0 0.0
2017-Oct-13 19:30N 52°06' E 004°16'0 0.0
2017-Oct-13 19:00N 52°06' E 004°16'0 0.0
2017-Oct-13 18:30N 52°06' E 004°16'0 0.0
2017-Oct-13 18:00N 52°06' E 004°16'0 0.0
2017-Oct-13 17:30N 52°06' E 004°16'0 0.0
2017-Oct-13 17:00N 52°06' E 004°16'0 0.0
2017-Oct-13 16:30N 52°06' E 004°16'0 0.0
2017-Oct-13 16:00N 52°06' E 004°16'0 0.0
2017-Oct-13 15:30N 52°06' E 004°16'0 0.0
2017-Oct-13 15:00N 52°06' E 004°16'0 0.0
2017-Oct-13 14:30N 52°06' E 004°16'0 0.0
2017-Oct-13 14:00N 52°06' E 004°16'0 0.0
2017-Oct-13 13:30N 52°06' E 004°16'0 0.0
2017-Oct-13 13:00N 52°06' E 004°16'0 0.0
2017-Oct-13 12:30N 52°06' E 004°16'0 0.0
2017-Oct-13 12:00N 52°06' E 004°16'0 0.0
2017-Oct-13 11:30N 52°06' E 004°16'0 0.0
2017-Oct-13 11:00N 52°06' E 004°16'0 0.0
2017-Oct-13 10:30N 52°06' E 004°16'0 0.0
2017-Oct-13 09:57N 52°06' E 004°16'0 0.0
2017-Oct-13 09:30N 52°06' E 004°16'0 0.0
2017-Oct-13 09:00N 52°06' E 004°16'0 0.0
2017-Oct-13 08:30N 52°06' E 004°16'0 0.0
2017-Oct-13 08:00N 52°06' E 004°16'0 0.0
2017-Oct-13 07:30N 52°06' E 004°16'0 0.0
2017-Oct-13 07:00N 52°06' E 004°16'0 0.0
2017-Oct-13 06:27N 52°06' E 004°16'0 0.0
2017-Oct-13 06:00N 52°06' E 004°16'0 0.0
2017-Oct-13 05:30N 52°06' E 004°16'0 0.0
2017-Oct-13 05:00N 52°06' E 004°16'0 0.0
2017-Oct-13 04:27N 52°06' E 004°16'0 0.0
2017-Oct-13 04:00N 52°06' E 004°16'0 0.0
2017-Oct-13 03:30N 52°06' E 004°16'0 0.0
2017-Oct-13 03:00N 52°06' E 004°16'0 0.0
2017-Oct-13 02:30N 52°06' E 004°16'0 0.0
2017-Oct-13 02:00N 52°06' E 004°16'0 0.0
2017-Oct-13 01:30N 52°06' E 004°16'0 0.0
2017-Oct-13 00:57N 52°06' E 004°16'0 0.0
2017-Oct-13 00:30N 52°06' E 004°16'0 0.0
2017-Oct-13 00:00N 52°06' E 004°16'0 0.0
2017-Oct-12 23:30N 52°06' E 004°16'0 0.0
2017-Oct-12 23:00N 52°06' E 004°16'0 0.0
2017-Oct-12 22:30N 52°06' E 004°16'0 0.0
2017-Oct-12 22:00N 52°06' E 004°16'0 0.0
2017-Oct-12 21:30N 52°06' E 004°16'0 0.0
2017-Oct-12 21:00N 52°06' E 004°16'0 0.0
2017-Oct-12 20:30N 52°06' E 004°16'0 0.0
2017-Oct-12 20:00N 52°06' E 004°16'0 0.0
2017-Oct-12 19:27N 52°06' E 004°16'0 0.0
2017-Oct-12 19:00N 52°06' E 004°16'0 0.0
2017-Oct-12 18:30N 52°06' E 004°16'0 0.0
2017-Oct-12 18:00N 52°06' E 004°16'0 0.0
2017-Oct-12 17:30N 52°06' E 004°16'0 0.0
2017-Oct-12 17:00N 52°06' E 004°16'0 0.0
2017-Oct-12 16:24N 52°06' E 004°16'0 0.0
2017-Oct-12 16:00N 52°06' E 004°16'0 0.0
2017-Oct-12 15:30N 52°06' E 004°16'0 0.0
2017-Oct-12 15:00N 52°06' E 004°16'0 0.0
2017-Oct-12 14:30N 52°06' E 004°16'0 0.0
2017-Oct-12 14:00N 52°06' E 004°16'0 0.0
2017-Oct-12 13:30N 52°06' E 004°16'0 0.0
2017-Oct-12 13:00N 52°06' E 004°16'0 0.0
2017-Oct-12 12:30N 52°06' E 004°16'0 0.0
2017-Oct-12 12:00N 52°06' E 004°16'0 0.0
2017-Oct-12 11:30N 52°06' E 004°16'0 0.0
2017-Oct-12 11:00N 52°06' E 004°16'0 0.0
2017-Oct-12 10:30N 52°06' E 004°16'0 0.0
2017-Oct-12 10:00N 52°06' E 004°16'0 0.0
2017-Oct-12 09:30N 52°06' E 004°16'0 0.0
2017-Oct-12 09:00N 52°06' E 004°16'0 0.0
2017-Oct-12 08:30N 52°06' E 004°16'0 0.0
2017-Oct-12 08:00N 52°06' E 004°16'0 0.0
2017-Oct-12 07:30N 52°06' E 004°16'0 0.0
2017-Oct-12 07:00N 52°06' E 004°16'0 0.0
2017-Oct-12 06:30N 52°06' E 004°16'0 0.0
2017-Oct-12 06:00N 52°06' E 004°16'0 0.0
2017-Oct-12 05:30N 52°06' E 004°16'0 0.0
2017-Oct-12 05:00N 52°06' E 004°16'0 0.0
2017-Oct-12 04:27N 52°06' E 004°16'0 0.0
2017-Oct-12 04:00N 52°06' E 004°16'0 0.0
2017-Oct-12 03:30N 52°06' E 004°16'0 0.0
2017-Oct-12 03:00N 52°06' E 004°16'0 0.0
2017-Oct-12 02:30N 52°06' E 004°16'0 0.0
2017-Oct-12 02:00N 52°06' E 004°16'0 0.0
2017-Oct-12 01:30N 52°06' E 004°16'0 0.0
2017-Oct-12 01:00N 52°06' E 004°16'0 0.0
2017-Oct-12 00:30N 52°06' E 004°16'0 0.0
2017-Oct-12 00:00N 52°06' E 004°16'0 0.0
2017-Oct-11 23:30N 52°06' E 004°16'0 0.0
2017-Oct-11 23:00N 52°06' E 004°16'0 0.0
2017-Oct-11 22:30N 52°06' E 004°16'0 0.0
2017-Oct-11 22:00N 52°06' E 004°16'0 0.0
2017-Oct-11 21:30N 52°06' E 004°16'0 0.0
2017-Oct-11 21:00N 52°06' E 004°16'0 0.0
2017-Oct-11 20:30N 52°06' E 004°16'0 0.0
2017-Oct-11 20:00N 52°06' E 004°16'0 0.0
2017-Oct-11 19:30N 52°06' E 004°16'0 0.0
2017-Oct-11 19:00N 52°06' E 004°16'0 0.0
2017-Oct-11 18:30N 52°06' E 004°16'0 0.0
2017-Oct-11 18:00N 52°06' E 004°16'0 0.0
2017-Oct-11 17:30N 52°06' E 004°16'0 0.0
2017-Oct-11 17:00N 52°06' E 004°16'0 0.0
2017-Oct-11 00:00N 52°06' E 004°16'0 0.0
2017-Oct-10 23:30N 52°06' E 004°16'0 0.0
2017-Oct-10 23:00N 52°06' E 004°16'0 0.0
2017-Oct-10 22:30N 52°06' E 004°16'0 0.0
2017-Oct-10 22:00N 52°06' E 004°16'0 0.0
2017-Oct-10 21:30N 52°06' E 004°16'0 0.0
2017-Oct-10 21:00N 52°06' E 004°16'0 0.0
2017-Oct-10 20:30N 52°06' E 004°16'0 0.0
2017-Oct-10 20:00N 52°06' E 004°16'0 0.0
2017-Oct-10 19:30N 52°06' E 004°16'0 0.0
2017-Oct-10 19:00N 52°06' E 004°16'0 0.0
2017-Oct-10 18:30N 52°06' E 004°16'0 0.0
2017-Oct-10 18:00N 52°06' E 004°16'0 0.0
2017-Oct-10 17:30N 52°06' E 004°16'0 0.0
2017-Oct-10 17:00N 52°06' E 004°16'0 0.0
2017-Oct-10 16:30N 52°06' E 004°16'0 0.0
2017-Oct-10 16:00N 52°06' E 004°16'0 0.0
2017-Oct-10 15:30N 52°06' E 004°16'0 0.0
2017-Oct-10 15:00N 52°06' E 004°16'0 0.0
2017-Oct-10 14:00N 52°06' E 004°16'0 0.0
2017-Oct-10 13:30N 52°06' E 004°16'0 0.0
2017-Oct-10 13:00N 52°06' E 004°16'0 0.0
2017-Oct-10 12:30N 52°06' E 004°16'0 0.0
2017-Oct-10 12:00N 52°06' E 004°16'0 0.0
2017-Oct-10 11:30N 52°06' E 004°16'0 0.0
2017-Oct-10 11:00N 52°06' E 004°16'0 0.0
2017-Oct-10 10:30N 52°06' E 004°16'0 0.0
2017-Oct-10 10:00N 52°06' E 004°16'0 0.0
2017-Oct-10 09:30N 52°06' E 004°16'0 0.0
2017-Oct-10 09:00N 52°06' E 004°16'0 0.0
2017-Oct-10 08:30N 52°06' E 004°16'0 0.0
2017-Oct-10 08:00N 52°06' E 004°16'0 0.0
2017-Oct-10 07:30N 52°06' E 004°16'0 0.0
2017-Oct-10 06:57N 52°06' E 004°16'0 0.0
2017-Oct-10 06:30N 52°06' E 004°16'0 0.0
2017-Oct-10 06:00N 52°06' E 004°16'0 0.0
2017-Oct-10 05:30N 52°06' E 004°16'0 0.0
2017-Oct-10 05:00N 52°06' E 004°16'0 0.0
2017-Oct-10 04:30N 52°06' E 004°16'0 0.0
2017-Oct-10 04:00N 52°06' E 004°16'0 0.0
2017-Oct-10 03:30N 52°06' E 004°16'0 0.0
2017-Oct-10 03:00N 52°06' E 004°16'0 0.0
2017-Oct-10 02:27N 52°06' E 004°16'0 0.0
2017-Oct-10 02:00N 52°06' E 004°16'0 0.0
2017-Oct-10 01:30N 52°06' E 004°16'0 0.0
2017-Oct-10 01:00N 52°06' E 004°16'0 0.0
2017-Oct-10 00:30N 52°06' E 004°16'0 0.0
2017-Oct-10 00:00N 52°06' E 004°16'0 0.0
2017-Oct-09 23:30N 52°06' E 004°16'0 0.0
2017-Oct-09 23:00N 52°06' E 004°16'0 0.0
2017-Oct-09 22:30N 52°06' E 004°16'0 0.0
2017-Oct-09 22:00N 52°06' E 004°16'0 0.0
2017-Oct-09 21:30N 52°06' E 004°16'0 0.0
2017-Oct-09 21:00N 52°06' E 004°16'0 0.0
2017-Oct-09 20:30N 52°06' E 004°16'0 0.0
2017-Oct-09 20:00N 52°06' E 004°16'0 0.0
2017-Oct-09 19:30N 52°06' E 004°16'0 0.0
2017-Oct-09 19:00N 52°06' E 004°16'0 0.0
2017-Oct-09 18:30N 52°06' E 004°16'0 0.0
2017-Oct-09 18:00N 52°06' E 004°16'0 0.0
2017-Oct-09 17:30N 52°06' E 004°16'0 0.0
2017-Oct-09 17:00N 52°06' E 004°16'0 0.0
2017-Oct-09 16:30N 52°06' E 004°16'0 0.0
2017-Oct-09 16:00N 52°06' E 004°16'0 0.0
2017-Oct-09 15:30N 52°06' E 004°16'0 0.0
2017-Oct-09 15:00N 52°06' E 004°16'0 0.0
2017-Oct-09 14:30N 52°06' E 004°16'0 0.0
2017-Oct-09 14:00N 52°06' E 004°16'0 0.0
2017-Oct-09 13:30N 52°06' E 004°16'0 0.0
2017-Oct-09 13:00N 52°06' E 004°16'0 0.0
2017-Oct-09 12:30N 52°06' E 004°16'0 0.0
2017-Oct-09 12:00N 52°06' E 004°16'0 0.0
2017-Oct-09 11:30N 52°06' E 004°16'0 0.0
2017-Oct-09 11:00N 52°06' E 004°16'0 0.0
2017-Oct-09 10:30N 52°06' E 004°16'0 0.0
2017-Oct-09 10:00N 52°06' E 004°16'0 0.0
2017-Oct-09 09:30N 52°06' E 004°16'0 0.0
2017-Oct-09 09:00N 52°06' E 004°16'0 0.0
2017-Oct-09 08:30N 52°06' E 004°16'0 0.0
2017-Oct-09 08:00N 52°06' E 004°16'0 0.0
2017-Oct-09 07:30N 52°06' E 004°16'0 0.0
2017-Oct-09 07:00N 52°06' E 004°16'0 0.0
2017-Oct-09 06:30N 52°06' E 004°16'0 0.0
2017-Oct-09 06:00N 52°06' E 004°16'0 0.0
2017-Oct-09 05:30N 52°06' E 004°16'0 0.0
2017-Oct-09 04:57N 52°06' E 004°16'0 0.0
2017-Oct-09 04:30N 52°06' E 004°16'0 0.0
2017-Oct-09 04:00N 52°06' E 004°16'0 0.0
2017-Oct-09 03:30N 52°06' E 004°16'0 0.0
2017-Oct-09 03:00N 52°06' E 004°16'0 0.0
2017-Oct-09 02:30N 52°06' E 004°16'0 0.0
2017-Oct-09 02:00N 52°06' E 004°16'0 0.0
2017-Oct-09 01:30N 52°06' E 004°16'0 0.0
2017-Oct-09 01:00N 52°06' E 004°16'0 0.0
2017-Oct-09 00:30N 52°06' E 004°16'0 0.0
2017-Oct-08 23:57N 52°06' E 004°16'0 0.0
2017-Oct-08 23:30N 52°06' E 004°16'0 0.0
2017-Oct-08 23:00N 52°06' E 004°16'0 0.0
2017-Oct-08 22:30N 52°06' E 004°16'0 0.0
2017-Oct-08 22:00N 52°06' E 004°16'0 0.0
2017-Oct-08 21:30N 52°06' E 004°16'0 0.0
2017-Oct-08 21:00N 52°06' E 004°16'0 0.0
2017-Oct-08 20:30N 52°06' E 004°16'0 0.0
2017-Oct-08 20:00N 52°06' E 004°16'0 0.0
2017-Oct-08 19:30N 52°06' E 004°16'0 0.0
2017-Oct-08 19:00N 52°06' E 004°16'0 0.0
2017-Oct-08 18:30N 52°06' E 004°16'0 0.0
2017-Oct-08 18:00N 52°06' E 004°16'0 0.0
2017-Oct-08 17:30N 52°06' E 004°16'0 0.0
2017-Oct-08 17:00N 52°06' E 004°16'0 0.0
2017-Oct-08 16:30N 52°06' E 004°16'0 0.0
2017-Oct-08 16:00N 52°06' E 004°16'0 0.0
2017-Oct-08 15:30N 52°06' E 004°16'0 0.0
2017-Oct-08 15:00N 52°06' E 004°16'0 0.0
2017-Oct-08 14:30N 52°06' E 004°16'0 0.0
2017-Oct-08 14:00N 52°06' E 004°16'0 0.0
2017-Oct-08 13:30N 52°06' E 004°16'0 0.0
2017-Oct-08 13:00N 52°06' E 004°16'0 0.0
2017-Oct-08 12:30N 52°06' E 004°16'0 0.0
2017-Oct-08 12:00N 52°06' E 004°16'0 0.0
2017-Oct-08 11:30N 52°06' E 004°16'0 0.0
2017-Oct-08 11:00N 52°06' E 004°16'0 0.0
2017-Oct-08 10:30N 52°06' E 004°16'0 0.0
2017-Oct-08 10:00N 52°06' E 004°16'0 0.0
2017-Oct-08 09:30N 52°06' E 004°16'0 0.0
2017-Oct-08 09:00N 52°06' E 004°16'0 0.0
2017-Oct-08 08:30N 52°06' E 004°16'0 0.0
2017-Oct-08 08:00N 52°06' E 004°16'0 0.0
2017-Oct-08 07:27N 52°06' E 004°16'0 0.0
2017-Oct-08 07:00N 52°06' E 004°16'0 0.0
2017-Oct-08 06:30N 52°06' E 004°16'0 0.0
2017-Oct-08 06:00N 52°06' E 004°16'0 0.0
2017-Oct-08 05:30N 52°06' E 004°16'0 0.0
2017-Oct-08 05:00N 52°06' E 004°16'0 0.0
2017-Oct-08 04:30N 52°06' E 004°16'0 0.0
2017-Oct-08 04:00N 52°06' E 004°16'0 0.0
2017-Oct-08 03:30N 52°06' E 004°16'0 0.0
2017-Oct-08 03:00N 52°06' E 004°16'0 0.0
2017-Oct-08 02:27N 52°06' E 004°16'0 0.1
2017-Oct-08 02:00N 52°06' E 004°16'0 0.1
2017-Oct-08 01:30N 52°06' E 004°16'0 0.0
2017-Oct-08 01:00N 52°06' E 004°16'0 0.0
2017-Oct-08 00:30N 52°06' E 004°16'0 0.0
2017-Oct-08 00:00N 52°06' E 004°16'0 0.0
2017-Oct-07 23:30N 52°06' E 004°16'0 0.0
2017-Oct-07 23:00N 52°06' E 004°16'0 0.0
2017-Oct-07 22:30N 52°06' E 004°16'0 0.0
2017-Oct-07 22:00N 52°06' E 004°16'0 0.0
2017-Oct-07 21:30N 52°06' E 004°16'0 0.0
2017-Oct-07 21:00N 52°06' E 004°16'0 0.0
2017-Oct-07 20:27N 52°06' E 004°16'0 0.0
2017-Oct-07 20:00N 52°06' E 004°16'0 0.0
2017-Oct-07 19:30N 52°06' E 004°16'0 0.0
2017-Oct-07 19:00N 52°06' E 004°16'0 0.0
2017-Oct-07 18:30N 52°06' E 004°16'0 0.0
2017-Oct-07 18:00N 52°06' E 004°16'0 0.0
2017-Oct-07 17:30N 52°06' E 004°16'0 0.0
2017-Oct-07 17:00N 52°06' E 004°16'0 0.0
2017-Oct-07 16:30N 52°06' E 004°16'0 0.0
2017-Oct-07 16:00N 52°06' E 004°16'0 0.0
2017-Oct-07 15:30N 52°06' E 004°16'0 0.0
2017-Oct-07 15:00N 52°06' E 004°16'0 0.0
2017-Oct-07 14:30N 52°06' E 004°16'0 0.0
2017-Oct-07 14:00N 52°06' E 004°16'0 0.0
2017-Oct-07 13:30N 52°06' E 004°16'0 0.0
2017-Oct-07 13:00N 52°06' E 004°16'0 0.0
2017-Oct-07 12:30N 52°06' E 004°16'0 0.0
2017-Oct-07 12:00N 52°06' E 004°16'0 0.0
2017-Oct-07 11:30N 52°06' E 004°16'0 0.0
2017-Oct-07 11:00N 52°06' E 004°16'0 0.0
2017-Oct-07 10:30N 52°06' E 004°16'0 0.0
2017-Oct-07 09:57N 52°06' E 004°16'0 0.0
2017-Oct-07 09:30N 52°06' E 004°16'0 0.0
2017-Oct-07 08:57N 52°06' E 004°16'0 0.0
2017-Oct-07 08:30N 52°06' E 004°16'0 0.0
2017-Oct-07 08:00N 52°06' E 004°16'0 0.0
2017-Oct-07 07:30N 52°06' E 004°16'0 0.0
2017-Oct-07 07:00N 52°06' E 004°16'0 0.0
2017-Oct-07 06:30N 52°06' E 004°16'0 0.0
2017-Oct-07 06:00N 52°06' E 004°16'0 0.0
2017-Oct-07 05:30N 52°06' E 004°16'0 0.0
2017-Oct-07 05:00N 52°06' E 004°16'0 0.0
2017-Oct-07 04:30N 52°06' E 004°16'0 0.0
2017-Oct-07 04:00N 52°06' E 004°16'0 0.0
2017-Oct-07 03:30N 52°06' E 004°16'0 0.0
2017-Oct-07 03:00N 52°06' E 004°16'0 0.0
2017-Oct-07 02:30N 52°06' E 004°16'0 0.0
2017-Oct-07 02:00N 52°06' E 004°16'0 0.0
2017-Oct-07 01:30N 52°06' E 004°16'0 0.0
2017-Oct-07 01:00N 52°06' E 004°16'0 0.0
2017-Oct-07 00:30N 52°06' E 004°16'0 0.0
2017-Oct-07 00:00N 52°06' E 004°16'0 0.0
2017-Oct-06 23:30N 52°06' E 004°16'0 0.0
2017-Oct-06 23:00N 52°06' E 004°16'0 0.0
2017-Oct-06 22:30N 52°06' E 004°16'  
Track history (hours):
 
Tides and Currents Weather Stations Pressure Air Temp Water Temp Dewpoint Dewpoint Depression Visibility Wind Speed Wind Dir Waves Ship Positions

Oceanographic research ship Zirfaea (Netherlands)

Detailed information on ship capabilities available from University of Delaware's Ocean Information Center.

Last reported at 2017-Oct-16 22:26 UTC. Time now 2017-Oct-17 15:09 UTC.
Position N 52°58' E 003°34'.

Length 63 m; draft 3.9 m.

Type: Law enforcement. MMSI: 246096000.

Date/timePositionNaut miles runAvg speedWind from/ knotsBaromVisibWave heightAir tempDewpointWater temp
2017-Oct-16 22:26N 52°58' E 003°34'4 9.3
2017-Oct-16 22:00N 52°54' E 003°32'5 9.2
2017-Oct-16 21:30N 52°49' E 003°30'4 9.1
2017-Oct-16 21:00N 52°45' E 003°28'5 8.9
2017-Oct-16 20:29N 52°40' E 003°27'4 8.4
2017-Oct-16 19:59N 52°36' E 003°26'4 6.2
2017-Oct-16 19:16N 52°34' E 003°32'2 9.2
2017-Oct-16 19:00N 52°32' E 003°35'6 9.1
2017-Oct-16 18:19N 52°28' E 003°43'3 9.2
2017-Oct-16 17:59N 52°27' E 003°47'4 8.9
2017-Oct-16 17:30N 52°24' E 003°52'5 9.2
2017-Oct-16 17:00N 52°20' E 003°56'5 9.6
2017-Oct-16 16:30N 52°16' E 004°01'510.0
2017-Oct-16 16:00N 52°12' E 004°06'5 9.6
2017-Oct-16 15:30N 52°09' E 004°12'4 7.4
2017-Oct-16 15:00N 52°06' E 004°16'7 7.4
2017-Oct-16 14:00N 52°13' E 004°14'4 8.2
2017-Oct-16 13:30N 52°17' E 004°12'4 7.4
2017-Oct-16 13:00N 52°21' E 004°11'3 6.2
2017-Oct-16 12:30N 52°19' E 004°15'2 4.8
2017-Oct-16 12:00N 52°18' E 004°18'4 8.0
2017-Oct-16 11:30N 52°16' E 004°24'0 0.6
2017-Oct-16 11:00N 52°16' E 004°24'2 3.6
2017-Oct-16 10:30N 52°16' E 004°21'3 5.7
2017-Oct-16 10:00N 52°13' E 004°19'510.2
2017-Oct-16 09:30N 52°09' E 004°16'3 5.6
2017-Oct-16 09:00N 52°06' E 004°16'0 0.0
2017-Oct-16 08:30N 52°06' E 004°16'0 0.0
2017-Oct-16 08:00N 52°06' E 004°16'0 0.0
2017-Oct-16 07:30N 52°06' E 004°16'0 0.0
2017-Oct-16 07:00N 52°06' E 004°16'0 0.0
2017-Oct-16 06:30N 52°06' E 004°16'0 0.0
2017-Oct-16 06:00N 52°06' E 004°16'0 0.0
2017-Oct-16 05:30N 52°06' E 004°16'0 0.0
2017-Oct-16 04:57N 52°06' E 004°16'0 0.0
2017-Oct-16 04:30N 52°06' E 004°16'0 0.0
2017-Oct-16 04:00N 52°06' E 004°16'0 0.0
2017-Oct-16 03:30N 52°06' E 004°16'0 0.0
2017-Oct-16 03:00N 52°06' E 004°16'0 0.0
2017-Oct-16 02:30N 52°06' E 004°16'0 0.0
2017-Oct-16 02:00N 52°06' E 004°16'0 0.0
2017-Oct-16 01:30N 52°06' E 004°16'0 0.0
2017-Oct-16 01:00N 52°06' E 004°16'0 0.0
2017-Oct-16 00:30N 52°06' E 004°16'0 0.0
2017-Oct-16 00:00N 52°06' E 004°16'0 0.0
2017-Oct-15 23:30N 52°06' E 004°16'0 0.0
2017-Oct-15 23:00N 52°06' E 004°16'0 0.0
2017-Oct-15 22:30N 52°06' E 004°16'0 0.0
2017-Oct-15 22:00N 52°06' E 004°16'0 0.0
2017-Oct-15 21:30N 52°06' E 004°16'0 0.0
2017-Oct-15 21:00N 52°06' E 004°16'0 0.0
2017-Oct-15 20:30N 52°06' E 004°16'0 0.0
2017-Oct-15 20:00N 52°06' E 004°16'0 0.0
2017-Oct-15 19:30N 52°06' E 004°16'0 0.0
2017-Oct-15 18:57N 52°06' E 004°16'0 0.0
2017-Oct-15 18:30N 52°06' E 004°16'0 0.0
2017-Oct-15 18:00N 52°06' E 004°16'0 0.0
2017-Oct-15 17:30N 52°06' E 004°16'0 0.0
2017-Oct-15 16:57N 52°06' E 004°16'0 0.0
2017-Oct-15 16:30N 52°06' E 004°16'0 0.0
2017-Oct-15 16:00N 52°06' E 004°16'0 0.0
2017-Oct-15 15:30N 52°06' E 004°16'0 0.0
2017-Oct-15 15:00N 52°06' E 004°16'0 0.0
2017-Oct-15 14:00N 52°06' E 004°16'0 0.0
2017-Oct-15 13:30N 52°06' E 004°16'0 0.0
2017-Oct-15 13:00N 52°06' E 004°16'0 0.0
2017-Oct-15 12:30N 52°06' E 004°16'0 0.0
2017-Oct-15 12:00N 52°06' E 004°16'0 0.0
2017-Oct-15 11:30N 52°06' E 004°16'0 0.0
2017-Oct-15 10:57N 52°06' E 004°16'0 0.0
2017-Oct-15 10:30N 52°06' E 004°16'0 0.0
2017-Oct-15 10:00N 52°06' E 004°16'0 0.0
2017-Oct-15 09:30N 52°06' E 004°16'0 0.0
2017-Oct-15 09:00N 52°06' E 004°16'0 0.0
2017-Oct-15 08:30N 52°06' E 004°16'0 0.0
2017-Oct-15 08:00N 52°06' E 004°16'0 0.0
2017-Oct-15 07:30N 52°06' E 004°16'0 0.0
2017-Oct-15 07:00N 52°06' E 004°16'0 0.0
2017-Oct-15 06:30N 52°06' E 004°16'0 0.0
2017-Oct-15 06:00N 52°06' E 004°16'0 0.0
2017-Oct-15 05:30N 52°06' E 004°16'0 0.0
2017-Oct-15 05:00N 52°06' E 004°16'0 0.0
2017-Oct-15 04:30N 52°06' E 004°16'0 0.0
2017-Oct-15 04:00N 52°06' E 004°16'0 0.0
2017-Oct-15 03:30N 52°06' E 004°16'0 0.0
2017-Oct-15 03:00N 52°06' E 004°16'0 0.0
2017-Oct-15 02:30N 52°06' E 004°16'0 0.0
2017-Oct-15 02:00N 52°06' E 004°16'0 0.1
2017-Oct-15 01:30N 52°06' E 004°16'0 0.1
2017-Oct-15 01:00N 52°06' E 004°16'0 0.0
2017-Oct-15 00:30N 52°06' E 004°16'0 0.0
2017-Oct-15 00:00N 52°06' E 004°16'0 0.0
2017-Oct-14 23:30N 52°06' E 004°16'0 0.0
2017-Oct-14 23:00N 52°06' E 004°16'0 0.0
2017-Oct-14 22:30N 52°06' E 004°16'0 0.0
2017-Oct-14 22:00N 52°06' E 004°16'0 0.0
2017-Oct-14 21:30N 52°06' E 004°16'0 0.0
2017-Oct-14 21:00N 52°06' E 004°16'0 0.0
2017-Oct-14 20:30N 52°06' E 004°16'0 0.0
2017-Oct-14 20:00N 52°06' E 004°16'0 0.0
2017-Oct-14 19:30N 52°06' E 004°16'0 0.0
2017-Oct-14 19:00N 52°06' E 004°16'0 0.0
2017-Oct-14 18:30N 52°06' E 004°16'0 0.0
2017-Oct-14 18:00N 52°06' E 004°16'0 0.0
2017-Oct-14 17:30N 52°06' E 004°16'0 0.0
2017-Oct-14 17:00N 52°06' E 004°16'0 0.0
2017-Oct-14 16:30N 52°06' E 004°16'0 0.0
2017-Oct-14 16:00N 52°06' E 004°16'0 0.0
2017-Oct-14 15:30N 52°06' E 004°16'0 0.0
2017-Oct-14 15:00N 52°06' E 004°16'0 0.0
2017-Oct-14 14:30N 52°06' E 004°16'0 0.0
2017-Oct-14 14:00N 52°06' E 004°16'0 0.0
2017-Oct-14 13:30N 52°06' E 004°16'0 0.0
2017-Oct-14 13:00N 52°06' E 004°16'0 0.0
2017-Oct-14 12:30N 52°06' E 004°16'0 0.0
2017-Oct-14 12:00N 52°06' E 004°16'0 0.0
2017-Oct-14 11:27N 52°06' E 004°16'0 0.0
2017-Oct-14 11:00N 52°06' E 004°16'0 0.0
2017-Oct-14 10:30N 52°06' E 004°16'0 0.0
2017-Oct-14 10:00N 52°06' E 004°16'0 0.0
2017-Oct-14 09:30N 52°06' E 004°16'0 0.0
2017-Oct-14 09:00N 52°06' E 004°16'0 0.0
2017-Oct-14 08:30N 52°06' E 004°16'0 0.0
2017-Oct-14 08:00N 52°06' E 004°16'0 0.0
2017-Oct-14 07:27N 52°06' E 004°16'0 0.0
2017-Oct-14 07:00N 52°06' E 004°16'0 0.0
2017-Oct-14 06:27N 52°06' E 004°16'0 0.0
2017-Oct-14 06:00N 52°06' E 004°16'0 0.0
2017-Oct-14 05:30N 52°06' E 004°16'0 0.0
2017-Oct-14 05:00N 52°06' E 004°16'0 0.0
2017-Oct-14 04:30N 52°06' E 004°16'0 0.0
2017-Oct-14 03:57N 52°06' E 004°16'0 0.0
2017-Oct-14 03:30N 52°06' E 004°16'0 0.0
2017-Oct-14 03:00N 52°06' E 004°16'0 0.0
2017-Oct-14 02:30N 52°06' E 004°16'0 0.0
2017-Oct-14 02:00N 52°06' E 004°16'0 0.0
2017-Oct-14 01:27N 52°06' E 004°16'0 0.0
2017-Oct-14 01:00N 52°06' E 004°16'0 0.0
2017-Oct-14 00:30N 52°06' E 004°16'0 0.0
2017-Oct-14 00:00N 52°06' E 004°16'0 0.0
2017-Oct-13 23:30N 52°06' E 004°16'0 0.0
2017-Oct-13 23:00N 52°06' E 004°16'0 0.0
2017-Oct-13 22:30N 52°06' E 004°16'0 0.0
2017-Oct-13 21:57N 52°06' E 004°16'0 0.0
2017-Oct-13 21:30N 52°06' E 004°16'0 0.0
2017-Oct-13 20:57N 52°06' E 004°16'0 0.0
2017-Oct-13 20:30N 52°06' E 004°16'0 0.0
2017-Oct-13 20:00N 52°06' E 004°16'0 0.0
2017-Oct-13 19:30N 52°06' E 004°16'0 0.0
2017-Oct-13 19:00N 52°06' E 004°16'0 0.0
2017-Oct-13 18:30N 52°06' E 004°16'0 0.0
2017-Oct-13 18:00N 52°06' E 004°16'0 0.0
2017-Oct-13 17:30N 52°06' E 004°16'0 0.0
2017-Oct-13 17:00N 52°06' E 004°16'0 0.0
2017-Oct-13 16:30N 52°06' E 004°16'0 0.0
2017-Oct-13 16:00N 52°06' E 004°16'0 0.0
2017-Oct-13 15:30N 52°06' E 004°16'0 0.0
2017-Oct-13 15:00N 52°06' E 004°16'0 0.0
2017-Oct-13 14:30N 52°06' E 004°16'0 0.0
2017-Oct-13 14:00N 52°06' E 004°16'0 0.0
2017-Oct-13 13:30N 52°06' E 004°16'0 0.0
2017-Oct-13 13:00N 52°06' E 004°16'0 0.0
2017-Oct-13 12:30N 52°06' E 004°16'0 0.0
2017-Oct-13 12:00N 52°06' E 004°16'0 0.0
2017-Oct-13 11:30N 52°06' E 004°16'0 0.0
2017-Oct-13 11:00N 52°06' E 004°16'0 0.0
2017-Oct-13 10:30N 52°06' E 004°16'0 0.0
2017-Oct-13 09:57N 52°06' E 004°16'0 0.0
2017-Oct-13 09:30N 52°06' E 004°16'0 0.0
2017-Oct-13 09:00N 52°06' E 004°16'0 0.0
2017-Oct-13 08:30N 52°06' E 004°16'0 0.0
2017-Oct-13 08:00N 52°06' E 004°16'0 0.0
2017-Oct-13 07:30N 52°06' E 004°16'0 0.0
2017-Oct-13 07:00N 52°06' E 004°16'0 0.0
2017-Oct-13 06:27N 52°06' E 004°16'0 0.0
2017-Oct-13 06:00N 52°06' E 004°16'0 0.0
2017-Oct-13 05:30N 52°06' E 004°16'0 0.0
2017-Oct-13 05:00N 52°06' E 004°16'0 0.0
2017-Oct-13 04:27N 52°06' E 004°16'0 0.0
2017-Oct-13 04:00N 52°06' E 004°16'0 0.0
2017-Oct-13 03:30N 52°06' E 004°16'0 0.0
2017-Oct-13 03:00N 52°06' E 004°16'0 0.0
2017-Oct-13 02:30N 52°06' E 004°16'0 0.0
2017-Oct-13 02:00N 52°06' E 004°16'0 0.0
2017-Oct-13 01:30N 52°06' E 004°16'0 0.0
2017-Oct-13 00:57N 52°06' E 004°16'0 0.0
2017-Oct-13 00:30N 52°06' E 004°16'0 0.0
2017-Oct-13 00:00N 52°06' E 004°16'0 0.0
2017-Oct-12 23:30N 52°06' E 004°16'0 0.0
2017-Oct-12 23:00N 52°06' E 004°16'0 0.0
2017-Oct-12 22:30N 52°06' E 004°16'0 0.0
2017-Oct-12 22:00N 52°06' E 004°16'0 0.0
2017-Oct-12 21:30N 52°06' E 004°16'0 0.0
2017-Oct-12 21:00N 52°06' E 004°16'0 0.0
2017-Oct-12 20:30N 52°06' E 004°16'0 0.0
2017-Oct-12 20:00N 52°06' E 004°16'0 0.0
2017-Oct-12 19:27N 52°06' E 004°16'0 0.0
2017-Oct-12 19:00N 52°06' E 004°16'0 0.0
2017-Oct-12 18:30N 52°06' E 004°16'0 0.0
2017-Oct-12 18:00N 52°06' E 004°16'0 0.0
2017-Oct-12 17:30N 52°06' E 004°16'0 0.0
2017-Oct-12 17:00N 52°06' E 004°16'0 0.0
2017-Oct-12 16:24N 52°06' E 004°16'0 0.0
2017-Oct-12 16:00N 52°06' E 004°16'0 0.0
2017-Oct-12 15:30N 52°06' E 004°16'0 0.0
2017-Oct-12 15:00N 52°06' E 004°16'0 0.0
2017-Oct-12 14:30N 52°06' E 004°16'0 0.0
2017-Oct-12 14:00N 52°06' E 004°16'0 0.0
2017-Oct-12 13:30N 52°06' E 004°16'0 0.0
2017-Oct-12 13:00N 52°06' E 004°16'0 0.0
2017-Oct-12 12:30N 52°06' E 004°16'0 0.0
2017-Oct-12 12:00N 52°06' E 004°16'0 0.0
2017-Oct-12 11:30N 52°06' E 004°16'0 0.0
2017-Oct-12 11:00N 52°06' E 004°16'0 0.0
2017-Oct-12 10:30N 52°06' E 004°16'0 0.0
2017-Oct-12 10:00N 52°06' E 004°16'0 0.0
2017-Oct-12 09:30N 52°06' E 004°16'0 0.0
2017-Oct-12 09:00N 52°06' E 004°16'0 0.0
2017-Oct-12 08:30N 52°06' E 004°16'0 0.0
2017-Oct-12 08:00N 52°06' E 004°16'0 0.0
2017-Oct-12 07:30N 52°06' E 004°16'0 0.0
2017-Oct-12 07:00N 52°06' E 004°16'0 0.0
2017-Oct-12 06:30N 52°06' E 004°16'0 0.0
2017-Oct-12 06:00N 52°06' E 004°16'0 0.0
2017-Oct-12 05:30N 52°06' E 004°16'0 0.0
2017-Oct-12 05:00N 52°06' E 004°16'0 0.0
2017-Oct-12 04:27N 52°06' E 004°16'0 0.0
2017-Oct-12 04:00N 52°06' E 004°16'0 0.0
2017-Oct-12 03:30N 52°06' E 004°16'0 0.0
2017-Oct-12 03:00N 52°06' E 004°16'0 0.0
2017-Oct-12 02:30N 52°06' E 004°16'0 0.0
2017-Oct-12 02:00N 52°06' E 004°16'0 0.0
2017-Oct-12 01:30N 52°06' E 004°16'0 0.0
2017-Oct-12 01:00N 52°06' E 004°16'0 0.0
2017-Oct-12 00:30N 52°06' E 004°16'0 0.0
2017-Oct-12 00:00N 52°06' E 004°16'0 0.0
2017-Oct-11 23:30N 52°06' E 004°16'0 0.0
2017-Oct-11 23:00N 52°06' E 004°16'0 0.0
2017-Oct-11 22:30N 52°06' E 004°16'0 0.0
2017-Oct-11 22:00N 52°06' E 004°16'0 0.0
2017-Oct-11 21:30N 52°06' E 004°16'0 0.0
2017-Oct-11 21:00N 52°06' E 004°16'0 0.0
2017-Oct-11 20:30N 52°06' E 004°16'0 0.0
2017-Oct-11 20:00N 52°06' E 004°16'0 0.0
2017-Oct-11 19:30N 52°06' E 004°16'0 0.0
2017-Oct-11 19:00N 52°06' E 004°16'0 0.0
2017-Oct-11 18:30N 52°06' E 004°16'0 0.0
2017-Oct-11 18:00N 52°06' E 004°16'0 0.0
2017-Oct-11 17:30N 52°06' E 004°16'0 0.0
2017-Oct-11 17:00N 52°06' E 004°16'0 0.0
2017-Oct-11 00:00N 52°06' E 004°16'0 0.0
2017-Oct-10 23:30N 52°06' E 004°16'0 0.0
2017-Oct-10 23:00N 52°06' E 004°16'0 0.0
2017-Oct-10 22:30N 52°06' E 004°16'0 0.0
2017-Oct-10 22:00N 52°06' E 004°16'0 0.0
2017-Oct-10 21:30N 52°06' E 004°16'0 0.0
2017-Oct-10 21:00N 52°06' E 004°16'0 0.0
2017-Oct-10 20:30N 52°06' E 004°16'0 0.0
2017-Oct-10 20:00N 52°06' E 004°16'0 0.0
2017-Oct-10 19:30N 52°06' E 004°16'0 0.0
2017-Oct-10 19:00N 52°06' E 004°16'0 0.0
2017-Oct-10 18:30N 52°06' E 004°16'0 0.0
2017-Oct-10 18:00N 52°06' E 004°16'0 0.0
2017-Oct-10 17:30N 52°06' E 004°16'0 0.0
2017-Oct-10 17:00N 52°06' E 004°16'0 0.0
2017-Oct-10 16:30N 52°06' E 004°16'0 0.0
2017-Oct-10 16:00N 52°06' E 004°16'0 0.0
2017-Oct-10 15:30N 52°06' E 004°16'0 0.0
2017-Oct-10 15:00N 52°06' E 004°16'0 0.0
2017-Oct-10 14:00N 52°06' E 004°16'0 0.0
2017-Oct-10 13:30N 52°06' E 004°16'0 0.0
2017-Oct-10 13:00N 52°06' E 004°16'0 0.0
2017-Oct-10 12:30N 52°06' E 004°16'0 0.0
2017-Oct-10 12:00N 52°06' E 004°16'0 0.0
2017-Oct-10 11:30N 52°06' E 004°16'0 0.0
2017-Oct-10 11:00N 52°06' E 004°16'0 0.0
2017-Oct-10 10:30N 52°06' E 004°16'0 0.0
2017-Oct-10 10:00N 52°06' E 004°16'0 0.0
2017-Oct-10 09:30N 52°06' E 004°16'0 0.0
2017-Oct-10 09:00N 52°06' E 004°16'0 0.0
2017-Oct-10 08:30N 52°06' E 004°16'0 0.0
2017-Oct-10 08:00N 52°06' E 004°16'0 0.0
2017-Oct-10 07:30N 52°06' E 004°16'0 0.0
2017-Oct-10 06:57N 52°06' E 004°16'0 0.0
2017-Oct-10 06:30N 52°06' E 004°16'0 0.0
2017-Oct-10 06:00N 52°06' E 004°16'0 0.0
2017-Oct-10 05:30N 52°06' E 004°16'0 0.0
2017-Oct-10 05:00N 52°06' E 004°16'0 0.0
2017-Oct-10 04:30N 52°06' E 004°16'0 0.0
2017-Oct-10 04:00N 52°06' E 004°16'0 0.0
2017-Oct-10 03:30N 52°06' E 004°16'0 0.0
2017-Oct-10 03:00N 52°06' E 004°16'0 0.0
2017-Oct-10 02:27N 52°06' E 004°16'0 0.0
2017-Oct-10 02:00N 52°06' E 004°16'0 0.0
2017-Oct-10 01:30N 52°06' E 004°16'0 0.0
2017-Oct-10 01:00N 52°06' E 004°16'0 0.0
2017-Oct-10 00:30N 52°06' E 004°16'0 0.0
2017-Oct-10 00:00N 52°06' E 004°16'0 0.0
2017-Oct-09 23:30N 52°06' E 004°16'0 0.0
2017-Oct-09 23:00N 52°06' E 004°16'0 0.0
2017-Oct-09 22:30N 52°06' E 004°16'0 0.0
2017-Oct-09 22:00N 52°06' E 004°16'0 0.0
2017-Oct-09 21:30N 52°06' E 004°16'0 0.0
2017-Oct-09 21:00N 52°06' E 004°16'0 0.0
2017-Oct-09 20:30N 52°06' E 004°16'0 0.0
2017-Oct-09 20:00N 52°06' E 004°16'0 0.0
2017-Oct-09 19:30N 52°06' E 004°16'0 0.0
2017-Oct-09 19:00N 52°06' E 004°16'0 0.0
2017-Oct-09 18:30N 52°06' E 004°16'0 0.0
2017-Oct-09 18:00N 52°06' E 004°16'0 0.0
2017-Oct-09 17:30N 52°06' E 004°16'0 0.0
2017-Oct-09 17:00N 52°06' E 004°16'0 0.0
2017-Oct-09 16:30N 52°06' E 004°16'0 0.0
2017-Oct-09 16:00N 52°06' E 004°16'0 0.0
2017-Oct-09 15:30N 52°06' E 004°16'0 0.0
2017-Oct-09 15:00N 52°06' E 004°16'0 0.0
2017-Oct-09 14:30N 52°06' E 004°16'0 0.0
2017-Oct-09 14:00N 52°06' E 004°16'0 0.0
2017-Oct-09 13:30N 52°06' E 004°16'0 0.0
2017-Oct-09 13:00N 52°06' E 004°16'0 0.0
2017-Oct-09 12:30N 52°06' E 004°16'0 0.0
2017-Oct-09 12:00N 52°06' E 004°16'0 0.0
2017-Oct-09 11:30N 52°06' E 004°16'0 0.0
2017-Oct-09 11:00N 52°06' E 004°16'0 0.0
2017-Oct-09 10:30N 52°06' E 004°16'0 0.0
2017-Oct-09 10:00N 52°06' E 004°16'0 0.0
2017-Oct-09 09:30N 52°06' E 004°16'0 0.0
2017-Oct-09 09:00N 52°06' E 004°16'0 0.0
2017-Oct-09 08:30N 52°06' E 004°16'0 0.0
2017-Oct-09 08:00N 52°06' E 004°16'0 0.0
2017-Oct-09 07:30N 52°06' E 004°16'0 0.0
2017-Oct-09 07:00N 52°06' E 004°16'0 0.0
2017-Oct-09 06:30N 52°06' E 004°16'0 0.0
2017-Oct-09 06:00N 52°06' E 004°16'0 0.0
2017-Oct-09 05:30N 52°06' E 004°16'0 0.0
2017-Oct-09 04:57N 52°06' E 004°16'0 0.0
2017-Oct-09 04:30N 52°06' E 004°16'0 0.0
2017-Oct-09 04:00N 52°06' E 004°16'0 0.0
2017-Oct-09 03:30N 52°06' E 004°16'0 0.0
2017-Oct-09 03:00N 52°06' E 004°16'0 0.0
2017-Oct-09 02:30N 52°06' E 004°16'0 0.0
2017-Oct-09 02:00N 52°06' E 004°16'0 0.0
2017-Oct-09 01:30N 52°06' E 004°16'0 0.0
2017-Oct-09 01:00N 52°06' E 004°16'0 0.0
2017-Oct-09 00:30N 52°06' E 004°16'0 0.0
2017-Oct-08 23:57N 52°06' E 004°16'0 0.0
2017-Oct-08 23:30N 52°06' E 004°16'0 0.0
2017-Oct-08 23:00N 52°06' E 004°16'0 0.0
2017-Oct-08 22:30N 52°06' E 004°16'0 0.0
2017-Oct-08 22:00N 52°06' E 004°16'0 0.0
2017-Oct-08 21:30N 52°06' E 004°16'0 0.0
2017-Oct-08 21:00N 52°06' E 004°16'0 0.0
2017-Oct-08 20:30N 52°06' E 004°16'0 0.0
2017-Oct-08 20:00N 52°06' E 004°16'0 0.0
2017-Oct-08 19:30N 52°06' E 004°16'0 0.0
2017-Oct-08 19:00N 52°06' E 004°16'0 0.0
2017-Oct-08 18:30N 52°06' E 004°16'0 0.0
2017-Oct-08 18:00N 52°06' E 004°16'0 0.0
2017-Oct-08 17:30N 52°06' E 004°16'0 0.0
2017-Oct-08 17:00N 52°06' E 004°16'0 0.0
2017-Oct-08 16:30N 52°06' E 004°16'0 0.0
2017-Oct-08 16:00N 52°06' E 004°16'0 0.0
2017-Oct-08 15:30N 52°06' E 004°16'0 0.0
2017-Oct-08 15:00N 52°06' E 004°16'0 0.0
2017-Oct-08 14:30N 52°06' E 004°16'0 0.0
2017-Oct-08 14:00N 52°06' E 004°16'0 0.0
2017-Oct-08 13:30N 52°06' E 004°16'0 0.0
2017-Oct-08 13:00N 52°06' E 004°16'0 0.0
2017-Oct-08 12:30N 52°06' E 004°16'0 0.0
2017-Oct-08 12:00N 52°06' E 004°16'0 0.0
2017-Oct-08 11:30N 52°06' E 004°16'0 0.0
2017-Oct-08 11:00N 52°06' E 004°16'0 0.0
2017-Oct-08 10:30N 52°06' E 004°16'0 0.0
2017-Oct-08 10:00N 52°06' E 004°16'0 0.0
2017-Oct-08 09:30N 52°06' E 004°16'0 0.0
2017-Oct-08 09:00N 52°06' E 004°16'0 0.0
2017-Oct-08 08:30N 52°06' E 004°16'0 0.0
2017-Oct-08 08:00N 52°06' E 004°16'0 0.0
2017-Oct-08 07:27N 52°06' E 004°16'0 0.0
2017-Oct-08 07:00N 52°06' E 004°16'0 0.0
2017-Oct-08 06:30N 52°06' E 004°16'0 0.0
2017-Oct-08 06:00N 52°06' E 004°16'0 0.0
2017-Oct-08 05:30N 52°06' E 004°16'0 0.0
2017-Oct-08 05:00N 52°06' E 004°16'0 0.0
2017-Oct-08 04:30N 52°06' E 004°16'0 0.0
2017-Oct-08 04:00N 52°06' E 004°16'0 0.0
2017-Oct-08 03:30N 52°06' E 004°16'0 0.0
2017-Oct-08 03:00N 52°06' E 004°16'0 0.0
2017-Oct-08 02:27N 52°06' E 004°16'0 0.1
2017-Oct-08 02:00N 52°06' E 004°16'0 0.1
2017-Oct-08 01:30N 52°06' E 004°16'0 0.0
2017-Oct-08 01:00N 52°06' E 004°16'0 0.0
2017-Oct-08 00:30N 52°06' E 004°16'0 0.0
2017-Oct-08 00:00N 52°06' E 004°16'0 0.0
2017-Oct-07 23:30N 52°06' E 004°16'0 0.0
2017-Oct-07 23:00N 52°06' E 004°16'0 0.0
2017-Oct-07 22:30N 52°06' E 004°16'0 0.0
2017-Oct-07 22:00N 52°06' E 004°16'0 0.0
2017-Oct-07 21:30N 52°06' E 004°16'0 0.0
2017-Oct-07 21:00N 52°06' E 004°16'0 0.0
2017-Oct-07 20:27N 52°06' E 004°16'0 0.0
2017-Oct-07 20:00N 52°06' E 004°16'0 0.0
2017-Oct-07 19:30N 52°06' E 004°16'0 0.0
2017-Oct-07 19:00N 52°06' E 004°16'0 0.0
2017-Oct-07 18:30N 52°06' E 004°16'0 0.0
2017-Oct-07 18:00N 52°06' E 004°16'0 0.0
2017-Oct-07 17:30N 52°06' E 004°16'0 0.0
2017-Oct-07 17:00N 52°06' E 004°16'0 0.0
2017-Oct-07 16:30N 52°06' E 004°16'0 0.0
2017-Oct-07 16:00N 52°06' E 004°16'0 0.0
2017-Oct-07 15:30N 52°06' E 004°16'0 0.0
2017-Oct-07 15:00N 52°06' E 004°16'0 0.0
2017-Oct-07 14:30N 52°06' E 004°16'0 0.0
2017-Oct-07 14:00N 52°06' E 004°16'0 0.0
2017-Oct-07 13:30N 52°06' E 004°16'0 0.0
2017-Oct-07 13:00N 52°06' E 004°16'0 0.0
2017-Oct-07 12:30N 52°06' E 004°16'0 0.0
2017-Oct-07 12:00N 52°06' E 004°16'0 0.0
2017-Oct-07 11:30N 52°06' E 004°16'0 0.0
2017-Oct-07 11:00N 52°06' E 004°16'0 0.0
2017-Oct-07 10:30N 52°06' E 004°16'0 0.0
2017-Oct-07 09:57N 52°06' E 004°16'0 0.0
2017-Oct-07 09:30N 52°06' E 004°16'0 0.0
2017-Oct-07 08:57N 52°06' E 004°16'0 0.0
2017-Oct-07 08:30N 52°06' E 004°16'0 0.0
2017-Oct-07 08:00N 52°06' E 004°16'0 0.0
2017-Oct-07 07:30N 52°06' E 004°16'0 0.0
2017-Oct-07 07:00N 52°06' E 004°16'0 0.0
2017-Oct-07 06:30N 52°06' E 004°16'0 0.0
2017-Oct-07 06:00N 52°06' E 004°16'0 0.0
2017-Oct-07 05:30N 52°06' E 004°16'0 0.0
2017-Oct-07 05:00N 52°06' E 004°16'0 0.0
2017-Oct-07 04:30N 52°06' E 004°16'0 0.0
2017-Oct-07 04:00N 52°06' E 004°16'0 0.0
2017-Oct-07 03:30N 52°06' E 004°16'0 0.0
2017-Oct-07 03:00N 52°06' E 004°16'0 0.0
2017-Oct-07 02:30N 52°06' E 004°16'0 0.0
2017-Oct-07 02:00N 52°06' E 004°16'0 0.0
2017-Oct-07 01:30N 52°06' E 004°16'0 0.0
2017-Oct-07 01:00N 52°06' E 004°16'0 0.0
2017-Oct-07 00:30N 52°06' E 004°16'0 0.0
2017-Oct-07 00:00N 52°06' E 004°16'0 0.0
2017-Oct-06 23:30N 52°06' E 004°16'0 0.0
2017-Oct-06 23:00N 52°06' E 004°16'0 0.0
2017-Oct-06 22:30N 52°06' E 004°16'  

Dump ship's entire track history